sensor_id;sensor_type;location;lat;lon;timestamp;P1;durP1;ratioP1;P2;durP2;ratioP2
53389;SDS011;39288;42.970;1.524;2023-02-28T00:00:17;11.97;;;9.67;;
53389;SDS011;39288;42.970;1.524;2023-02-28T00:01:21;11.33;;;9.77;;
53389;SDS011;39288;42.970;1.524;2023-02-28T00:02:22;12.05;;;9.88;;
53389;SDS011;39288;42.970;1.524;2023-02-28T00:03:22;8.47;;;6.70;;
53389;SDS011;39288;42.970;1.524;2023-02-28T00:04:22;11.63;;;8.60;;
53389;SDS011;39288;42.970;1.524;2023-02-28T00:05:26;7.90;;;7.07;;
53389;SDS011;39288;42.970;1.524;2023-02-28T00:06:28;6.97;;;6.10;;
53389;SDS011;39288;42.970;1.524;2023-02-28T00:07:29;9.27;;;7.23;;
53389;SDS011;39288;42.970;1.524;2023-02-28T00:09:30;10.38;;;6.72;;
53389;SDS011;39288;42.970;1.524;2023-02-28T00:10:31;21.33;;;12.10;;
53389;SDS011;39288;42.970;1.524;2023-02-28T00:11:32;18.27;;;10.83;;
53389;SDS011;39288;42.970;1.524;2023-02-28T00:12:32;15.07;;;10.60;;
53389;SDS011;39288;42.970;1.524;2023-02-28T00:13:34;13.48;;;9.07;;
53389;SDS011;39288;42.970;1.524;2023-02-28T00:14:37;8.20;;;6.45;;
53389;SDS011;39288;42.970;1.524;2023-02-28T00:15:37;14.30;;;9.07;;
53389;SDS011;39288;42.970;1.524;2023-02-28T00:16:38;11.30;;;8.07;;
53389;SDS011;39288;42.970;1.524;2023-02-28T00:17:38;7.03;;;5.90;;
53389;SDS011;39288;42.970;1.524;2023-02-28T00:18:39;5.60;;;5.00;;
53389;SDS011;39288;42.970;1.524;2023-02-28T00:19:40;5.93;;;5.10;;
53389;SDS011;39288;42.970;1.524;2023-02-28T00:20:40;5.33;;;4.63;;
53389;SDS011;39288;42.970;1.524;2023-02-28T00:21:40;7.20;;;6.50;;
53389;SDS011;39288;42.970;1.524;2023-02-28T00:22:42;5.37;;;4.87;;
53389;SDS011;39288;42.970;1.524;2023-02-28T00:23:45;5.47;;;4.90;;
53389;SDS011;39288;42.970;1.524;2023-02-28T00:24:45;6.35;;;5.05;;
53389;SDS011;39288;42.970;1.524;2023-02-28T00:25:46;6.07;;;5.28;;
53389;SDS011;39288;42.970;1.524;2023-02-28T00:26:47;6.47;;;5.40;;
53389;SDS011;39288;42.970;1.524;2023-02-28T00:27:48;6.47;;;5.77;;
53389;SDS011;39288;42.970;1.524;2023-02-28T00:28:48;6.07;;;5.20;;
53389;SDS011;39288;42.970;1.524;2023-02-28T00:29:49;6.73;;;5.43;;
53389;SDS011;39288;42.970;1.524;2023-02-28T00:30:49;6.63;;;5.67;;
53389;SDS011;39288;42.970;1.524;2023-02-28T00:31:50;6.13;;;5.53;;
53389;SDS011;39288;42.970;1.524;2023-02-28T00:32:50;6.47;;;5.50;;
53389;SDS011;39288;42.970;1.524;2023-02-28T00:33:51;6.57;;;5.57;;
53389;SDS011;39288;42.970;1.524;2023-02-28T00:34:51;6.33;;;5.40;;
53389;SDS011;39288;42.970;1.524;2023-02-28T00:35:52;6.10;;;5.50;;
53389;SDS011;39288;42.970;1.524;2023-02-28T00:36:52;6.53;;;5.17;;
53389;SDS011;39288;42.970;1.524;2023-02-28T00:37:53;6.67;;;5.50;;
53389;SDS011;39288;42.970;1.524;2023-02-28T00:38:53;5.73;;;5.07;;
53389;SDS011;39288;42.970;1.524;2023-02-28T00:39:54;5.60;;;5.03;;
53389;SDS011;39288;42.970;1.524;2023-02-28T00:40:54;6.03;;;5.43;;
53389;SDS011;39288;42.970;1.524;2023-02-28T00:41:55;5.83;;;4.87;;
53389;SDS011;39288;42.970;1.524;2023-02-28T00:42:59;7.35;;;5.65;;
53389;SDS011;39288;42.970;1.524;2023-02-28T00:44:01;7.03;;;5.47;;
53389;SDS011;39288;42.970;1.524;2023-02-28T00:45:02;6.97;;;6.03;;
53389;SDS011;39288;42.970;1.524;2023-02-28T00:46:04;7.03;;;6.25;;
53389;SDS011;39288;42.970;1.524;2023-02-28T00:47:05;5.47;;;4.97;;
53389;SDS011;39288;42.970;1.524;2023-02-28T00:48:06;6.40;;;5.43;;
53389;SDS011;39288;42.970;1.524;2023-02-28T00:49:06;5.70;;;4.83;;
53389;SDS011;39288;42.970;1.524;2023-02-28T00:50:08;6.27;;;5.07;;
53389;SDS011;39288;42.970;1.524;2023-02-28T00:51:12;5.28;;;4.78;;
53389;SDS011;39288;42.970;1.524;2023-02-28T00:52:14;6.97;;;5.72;;
53389;SDS011;39288;42.970;1.524;2023-02-28T00:53:15;6.70;;;6.00;;
53389;SDS011;39288;42.970;1.524;2023-02-28T00:54:15;8.07;;;6.17;;
53389;SDS011;39288;42.970;1.524;2023-02-28T00:55:16;6.27;;;5.03;;
53389;SDS011;39288;42.970;1.524;2023-02-28T00:56:17;6.43;;;5.67;;
53389;SDS011;39288;42.970;1.524;2023-02-28T00:57:17;10.43;;;8.77;;
53389;SDS011;39288;42.970;1.524;2023-02-28T00:58:18;10.63;;;9.23;;
53389;SDS011;39288;42.970;1.524;2023-02-28T00:59:18;7.93;;;5.83;;
53389;SDS011;39288;42.970;1.524;2023-02-28T01:00:19;5.28;;;4.78;;
53389;SDS011;39288;42.970;1.524;2023-02-28T01:01:20;8.37;;;7.47;;
53389;SDS011;39288;42.970;1.524;2023-02-28T01:02:21;7.47;;;5.40;;
53389;SDS011;39288;42.970;1.524;2023-02-28T01:04:22;7.18;;;5.07;;
53389;SDS011;39288;42.970;1.524;2023-02-28T01:05:23;7.03;;;6.13;;
53389;SDS011;39288;42.970;1.524;2023-02-28T01:06:23;8.73;;;7.83;;
53389;SDS011;39288;42.970;1.524;2023-02-28T01:07:24;5.27;;;4.77;;
53389;SDS011;39288;42.970;1.524;2023-02-28T01:08:25;6.20;;;5.60;;
53389;SDS011;39288;42.970;1.524;2023-02-28T01:09:26;6.07;;;4.70;;
53389;SDS011;39288;42.970;1.524;2023-02-28T01:10:26;6.83;;;6.10;;
53389;SDS011;39288;42.970;1.524;2023-02-28T01:11:31;9.07;;;6.25;;
53389;SDS011;39288;42.970;1.524;2023-02-28T01:12:32;10.75;;;5.40;;
53389;SDS011;39288;42.970;1.524;2023-02-28T01:13:33;11.63;;;6.40;;
53389;SDS011;39288;42.970;1.524;2023-02-28T01:14:34;6.53;;;5.20;;
53389;SDS011;39288;42.970;1.524;2023-02-28T01:15:34;6.80;;;6.10;;
53389;SDS011;39288;42.970;1.524;2023-02-28T01:16:35;6.77;;;5.47;;
53389;SDS011;39288;42.970;1.524;2023-02-28T01:17:35;5.77;;;5.17;;
53389;SDS011;39288;42.970;1.524;2023-02-28T01:18:36;6.90;;;6.17;;
53389;SDS011;39288;42.970;1.524;2023-02-28T01:19:37;8.65;;;6.10;;
53389;SDS011;39288;42.970;1.524;2023-02-28T01:20:38;6.33;;;5.03;;
53389;SDS011;39288;42.970;1.524;2023-02-28T01:21:38;5.67;;;5.17;;
53389;SDS011;39288;42.970;1.524;2023-02-28T01:22:39;6.67;;;5.20;;
53389;SDS011;39288;42.970;1.524;2023-02-28T01:23:40;6.07;;;5.47;;
53389;SDS011;39288;42.970;1.524;2023-02-28T01:24:40;6.43;;;5.10;;
53389;SDS011;39288;42.970;1.524;2023-02-28T01:25:41;6.00;;;5.40;;
53389;SDS011;39288;42.970;1.524;2023-02-28T01:26:41;6.87;;;5.50;;
53389;SDS011;39288;42.970;1.524;2023-02-28T01:27:42;5.37;;;4.87;;
53389;SDS011;39288;42.970;1.524;2023-02-28T01:28:42;6.50;;;5.57;;
53389;SDS011;39288;42.970;1.524;2023-02-28T01:29:43;5.13;;;4.67;;
53389;SDS011;39288;42.970;1.524;2023-02-28T01:30:47;5.40;;;4.57;;
53389;SDS011;39288;42.970;1.524;2023-02-28T01:31:48;5.60;;;5.05;;
53389;SDS011;39288;42.970;1.524;2023-02-28T01:32:48;5.37;;;4.87;;
53389;SDS011;39288;42.970;1.524;2023-02-28T01:33:51;5.90;;;5.28;;
53389;SDS011;39288;42.970;1.524;2023-02-28T01:34:51;5.17;;;4.67;;
53389;SDS011;39288;42.970;1.524;2023-02-28T01:36:02;5.40;;;4.83;;
53389;SDS011;39288;42.970;1.524;2023-02-28T01:38:04;5.90;;;4.95;;
53389;SDS011;39288;42.970;1.524;2023-02-28T01:39:05;6.17;;;4.90;;
53389;SDS011;39288;42.970;1.524;2023-02-28T01:40:06;5.13;;;4.63;;
53389;SDS011;39288;42.970;1.524;2023-02-28T01:41:07;7.38;;;5.00;;
53389;SDS011;39288;42.970;1.524;2023-02-28T01:42:08;6.03;;;4.67;;
53389;SDS011;39288;42.970;1.524;2023-02-28T01:43:20;5.95;;;5.32;;
53389;SDS011;39288;42.970;1.524;2023-02-28T01:45:57;5.47;;;4.95;;
53389;SDS011;39288;42.970;1.524;2023-02-28T01:46:58;4.93;;;4.43;;
53389;SDS011;39288;42.970;1.524;2023-02-28T01:48:01;6.13;;;5.27;;
53389;SDS011;39288;42.970;1.524;2023-02-28T01:49:08;4.60;;;4.20;;
53389;SDS011;39288;42.970;1.524;2023-02-28T01:50:12;5.40;;;4.90;;
53389;SDS011;39288;42.970;1.524;2023-02-28T01:51:17;5.22;;;4.70;;
53389;SDS011;39288;42.970;1.524;2023-02-28T01:52:20;6.07;;;4.90;;
53389;SDS011;39288;42.970;1.524;2023-02-28T01:53:26;4.88;;;4.47;;
53389;SDS011;39288;42.970;1.524;2023-02-28T01:54:31;5.38;;;4.88;;
53389;SDS011;39288;42.970;1.524;2023-02-28T01:55:32;5.53;;;4.20;;
53389;SDS011;39288;42.970;1.524;2023-02-28T01:56:33;6.30;;;4.90;;
53389;SDS011;39288;42.970;1.524;2023-02-28T01:57:37;5.70;;;4.70;;
53389;SDS011;39288;42.970;1.524;2023-02-28T01:58:41;5.65;;;4.55;;
53389;SDS011;39288;42.970;1.524;2023-02-28T01:59:51;5.03;;;4.33;;
53389;SDS011;39288;42.970;1.524;2023-02-28T02:01:00;4.63;;;3.92;;
53389;SDS011;39288;42.970;1.524;2023-02-28T02:02:02;5.03;;;4.53;;
53389;SDS011;39288;42.970;1.524;2023-02-28T02:03:05;5.17;;;4.47;;
53389;SDS011;39288;42.970;1.524;2023-02-28T02:04:08;5.13;;;4.63;;
53389;SDS011;39288;42.970;1.524;2023-02-28T02:05:10;7.03;;;5.10;;
53389;SDS011;39288;42.970;1.524;2023-02-28T02:06:12;5.32;;;4.43;;
53389;SDS011;39288;42.970;1.524;2023-02-28T02:07:13;5.87;;;4.87;;
53389;SDS011;39288;42.970;1.524;2023-02-28T02:08:21;4.85;;;4.45;;
53389;SDS011;39288;42.970;1.524;2023-02-28T02:09:23;6.13;;;4.18;;
53389;SDS011;39288;42.970;1.524;2023-02-28T02:11:43;5.22;;;4.32;;
53389;SDS011;39288;42.970;1.524;2023-02-28T02:27:58;7.05;;;4.85;;
53389;SDS011;39288;42.970;1.524;2023-02-28T02:29:21;6.25;;;4.70;;
53389;SDS011;39288;42.970;1.524;2023-02-28T02:30:53;4.63;;;4.13;;
53389;SDS011;39288;42.970;1.524;2023-02-28T02:33:24;4.95;;;4.25;;
53389;SDS011;39288;42.970;1.524;2023-02-28T02:35:19;4.90;;;4.38;;
53389;SDS011;39288;42.970;1.524;2023-02-28T02:36:24;5.43;;;4.80;;
53389;SDS011;39288;42.970;1.524;2023-02-28T02:38:50;5.22;;;4.30;;
53389;SDS011;39288;42.970;1.524;2023-02-28T02:40:04;5.97;;;4.57;;
53389;SDS011;39288;42.970;1.524;2023-02-28T02:41:10;4.90;;;4.40;;
53389;SDS011;39288;42.970;1.524;2023-02-28T02:42:21;5.35;;;4.40;;
53389;SDS011;39288;42.970;1.524;2023-02-28T02:43:37;4.90;;;4.40;;
53389;SDS011;39288;42.970;1.524;2023-02-28T02:44:43;4.80;;;4.30;;
53389;SDS011;39288;42.970;1.524;2023-02-28T02:45:52;5.22;;;4.60;;
53389;SDS011;39288;42.970;1.524;2023-02-28T02:46:59;6.45;;;4.47;;
53389;SDS011;39288;42.970;1.524;2023-02-28T02:48:07;5.80;;;4.32;;
53389;SDS011;39288;42.970;1.524;2023-02-28T02:49:12;4.78;;;4.30;;
53389;SDS011;39288;42.970;1.524;2023-02-28T02:50:17;5.22;;;4.72;;
53389;SDS011;39288;42.970;1.524;2023-02-28T02:51:21;5.07;;;4.13;;
53389;SDS011;39288;42.970;1.524;2023-02-28T02:52:24;5.78;;;4.68;;
53389;SDS011;39288;42.970;1.524;2023-02-28T02:53:30;4.93;;;4.43;;
53389;SDS011;39288;42.970;1.524;2023-02-28T02:54:35;4.72;;;4.20;;
53389;SDS011;39288;42.970;1.524;2023-02-28T02:55:38;5.13;;;4.63;;
53389;SDS011;39288;42.970;1.524;2023-02-28T02:56:41;6.35;;;4.63;;
53389;SDS011;39288;42.970;1.524;2023-02-28T02:57:46;4.93;;;4.35;;
53389;SDS011;39288;42.970;1.524;2023-02-28T02:58:49;5.07;;;4.20;;
53389;SDS011;39288;42.970;1.524;2023-02-28T02:59:51;5.55;;;4.45;;
53389;SDS011;39288;42.970;1.524;2023-02-28T03:00:54;5.15;;;4.65;;
53389;SDS011;39288;42.970;1.524;2023-02-28T03:02:00;5.07;;;4.57;;
53389;SDS011;39288;42.970;1.524;2023-02-28T03:03:02;4.78;;;4.22;;
53389;SDS011;39288;42.970;1.524;2023-02-28T03:04:05;5.05;;;4.40;;
53389;SDS011;39288;42.970;1.524;2023-02-28T03:05:13;7.00;;;4.88;;
53389;SDS011;39288;42.970;1.524;2023-02-28T03:06:17;4.97;;;4.47;;
53389;SDS011;39288;42.970;1.524;2023-02-28T03:07:18;4.93;;;4.43;;
53389;SDS011;39288;42.970;1.524;2023-02-28T03:08:18;5.40;;;4.30;;
53389;SDS011;39288;42.970;1.524;2023-02-28T03:09:19;5.33;;;4.57;;
53389;SDS011;39288;42.970;1.524;2023-02-28T03:10:26;6.03;;;4.90;;
53389;SDS011;39288;42.970;1.524;2023-02-28T03:11:28;5.03;;;4.32;;
53389;SDS011;39288;42.970;1.524;2023-02-28T03:12:33;5.35;;;4.55;;
53389;SDS011;39288;42.970;1.524;2023-02-28T03:15:26;5.50;;;4.50;;
53389;SDS011;39288;42.970;1.524;2023-02-28T03:16:39;5.03;;;4.38;;
53389;SDS011;39288;42.970;1.524;2023-02-28T03:19:23;5.95;;;4.43;;
53389;SDS011;39288;42.970;1.524;2023-02-28T03:24:11;4.43;;;4.03;;
53389;SDS011;39288;42.970;1.524;2023-02-28T03:26:28;5.80;;;4.43;;
53389;SDS011;39288;42.970;1.524;2023-02-28T03:27:30;4.73;;;4.07;;
53389;SDS011;39288;42.970;1.524;2023-02-28T03:30:24;5.00;;;4.50;;
53389;SDS011;39288;42.970;1.524;2023-02-28T03:31:30;6.43;;;5.38;;
53389;SDS011;39288;42.970;1.524;2023-02-28T03:32:36;6.97;;;5.35;;
53389;SDS011;39288;42.970;1.524;2023-02-28T03:33:41;5.35;;;4.57;;
53389;SDS011;39288;42.970;1.524;2023-02-28T03:34:49;5.38;;;4.57;;
53389;SDS011;39288;42.970;1.524;2023-02-28T03:35:56;5.15;;;4.45;;
53389;SDS011;39288;42.970;1.524;2023-02-28T03:37:00;4.90;;;4.22;;
53389;SDS011;39288;42.970;1.524;2023-02-28T03:38:15;4.63;;;4.18;;
53389;SDS011;39288;42.970;1.524;2023-02-28T03:39:35;4.63;;;4.03;;
53389;SDS011;39288;42.970;1.524;2023-02-28T03:40:38;6.97;;;4.10;;
53389;SDS011;39288;42.970;1.524;2023-02-28T03:41:41;6.63;;;4.27;;
53389;SDS011;39288;42.970;1.524;2023-02-28T03:42:48;5.13;;;4.47;;
53389;SDS011;39288;42.970;1.524;2023-02-28T03:43:56;5.28;;;4.78;;
53389;SDS011;39288;42.970;1.524;2023-02-28T03:45:00;6.03;;;4.63;;
53389;SDS011;39288;42.970;1.524;2023-02-28T03:46:09;7.18;;;5.00;;
53389;SDS011;39288;42.970;1.524;2023-02-28T03:47:16;6.72;;;4.90;;
53389;SDS011;39288;42.970;1.524;2023-02-28T03:48:26;6.15;;;4.88;;
53389;SDS011;39288;42.970;1.524;2023-02-28T03:49:35;6.38;;;5.07;;
53389;SDS011;39288;42.970;1.524;2023-02-28T03:50:45;5.90;;;5.22;;
53389;SDS011;39288;42.970;1.524;2023-02-28T03:51:48;7.30;;;5.50;;
53389;SDS011;39288;42.970;1.524;2023-02-28T03:52:51;7.18;;;5.50;;
53389;SDS011;39288;42.970;1.524;2023-02-28T03:54:02;6.65;;;5.50;;
53389;SDS011;39288;42.970;1.524;2023-02-28T03:55:07;6.60;;;5.00;;
53389;SDS011;39288;42.970;1.524;2023-02-28T03:56:20;7.75;;;4.90;;
53389;SDS011;39288;42.970;1.524;2023-02-28T03:57:26;6.40;;;5.32;;
53389;SDS011;39288;42.970;1.524;2023-02-28T03:59:54;5.78;;;5.18;;
53389;SDS011;39288;42.970;1.524;2023-02-28T04:01:19;10.65;;;5.40;;
53389;SDS011;39288;42.970;1.524;2023-02-28T04:02:24;6.38;;;5.13;;
53389;SDS011;39288;42.970;1.524;2023-02-28T04:03:24;6.27;;;5.47;;
53389;SDS011;39288;42.970;1.524;2023-02-28T04:04:25;8.07;;;5.87;;
53389;SDS011;39288;42.970;1.524;2023-02-28T04:05:25;7.00;;;5.73;;
53389;SDS011;39288;42.970;1.524;2023-02-28T04:06:27;9.20;;;5.43;;
53389;SDS011;39288;42.970;1.524;2023-02-28T04:07:30;7.00;;;5.87;;
53389;SDS011;39288;42.970;1.524;2023-02-28T04:08:31;9.98;;;6.13;;
53389;SDS011;39288;42.970;1.524;2023-02-28T04:09:31;7.03;;;5.67;;
53389;SDS011;39288;42.970;1.524;2023-02-28T04:10:32;10.33;;;5.30;;
53389;SDS011;39288;42.970;1.524;2023-02-28T04:12:40;7.53;;;5.75;;
53389;SDS011;39288;42.970;1.524;2023-02-28T04:13:40;6.07;;;5.47;;
53389;SDS011;39288;42.970;1.524;2023-02-28T04:14:41;7.73;;;5.47;;
53389;SDS011;39288;42.970;1.524;2023-02-28T04:15:41;6.50;;;5.70;;
53389;SDS011;39288;42.970;1.524;2023-02-28T04:16:42;6.93;;;5.57;;
53389;SDS011;39288;42.970;1.524;2023-02-28T04:17:42;6.33;;;5.67;;
53389;SDS011;39288;42.970;1.524;2023-02-28T04:18:43;7.13;;;5.87;;
53389;SDS011;39288;42.970;1.524;2023-02-28T04:19:44;6.83;;;5.60;;
53389;SDS011;39288;42.970;1.524;2023-02-28T04:20:47;6.90;;;5.65;;
53389;SDS011;39288;42.970;1.524;2023-02-28T04:21:48;6.60;;;5.70;;
53389;SDS011;39288;42.970;1.524;2023-02-28T04:22:50;8.18;;;5.63;;
53389;SDS011;39288;42.970;1.524;2023-02-28T04:23:50;5.77;;;5.17;;
53389;SDS011;39288;42.970;1.524;2023-02-28T04:24:51;11.90;;;6.60;;
53389;SDS011;39288;42.970;1.524;2023-02-28T04:25:54;7.78;;;5.70;;
53389;SDS011;39288;42.970;1.524;2023-02-28T04:26:56;6.35;;;5.65;;
53389;SDS011;39288;42.970;1.524;2023-02-28T04:27:57;6.97;;;5.35;;
53389;SDS011;39288;42.970;1.524;2023-02-28T04:28:58;8.73;;;5.40;;
53389;SDS011;39288;42.970;1.524;2023-02-28T04:29:59;7.05;;;5.40;;
53389;SDS011;39288;42.970;1.524;2023-02-28T04:31:01;7.20;;;5.90;;
53389;SDS011;39288;42.970;1.524;2023-02-28T04:32:03;6.07;;;5.35;;
53389;SDS011;39288;42.970;1.524;2023-02-28T04:33:04;6.77;;;5.87;;
53389;SDS011;39288;42.970;1.524;2023-02-28T04:34:05;7.67;;;5.60;;
53389;SDS011;39288;42.970;1.524;2023-02-28T04:35:05;7.87;;;6.20;;
53389;SDS011;39288;42.970;1.524;2023-02-28T04:36:07;6.07;;;5.47;;
53389;SDS011;39288;42.970;1.524;2023-02-28T04:37:08;7.80;;;6.28;;
53389;SDS011;39288;42.970;1.524;2023-02-28T04:38:08;6.97;;;5.57;;
53389;SDS011;39288;42.970;1.524;2023-02-28T04:39:09;7.00;;;5.97;;
53389;SDS011;39288;42.970;1.524;2023-02-28T04:40:10;7.57;;;6.10;;
53389;SDS011;39288;42.970;1.524;2023-02-28T04:41:11;6.00;;;5.40;;
53389;SDS011;39288;42.970;1.524;2023-02-28T04:42:12;8.30;;;5.75;;
53389;SDS011;39288;42.970;1.524;2023-02-28T04:43:13;8.45;;;6.45;;
53389;SDS011;39288;42.970;1.524;2023-02-28T04:44:13;9.20;;;5.20;;
53389;SDS011;39288;42.970;1.524;2023-02-28T04:45:14;7.97;;;6.77;;
53389;SDS011;39288;42.970;1.524;2023-02-28T04:46:14;7.50;;;5.80;;
53389;SDS011;39288;42.970;1.524;2023-02-28T04:47:15;6.60;;;5.87;;
53389;SDS011;39288;42.970;1.524;2023-02-28T04:48:18;7.85;;;6.32;;
53389;SDS011;39288;42.970;1.524;2023-02-28T04:49:19;7.83;;;6.10;;
53389;SDS011;39288;42.970;1.524;2023-02-28T04:50:19;7.33;;;6.00;;
53389;SDS011;39288;42.970;1.524;2023-02-28T04:51:19;8.20;;;6.23;;
53389;SDS011;39288;42.970;1.524;2023-02-28T04:52:20;8.70;;;6.90;;
53389;SDS011;39288;42.970;1.524;2023-02-28T04:53:21;9.10;;;6.57;;
53389;SDS011;39288;42.970;1.524;2023-02-28T04:54:21;9.10;;;6.73;;
53389;SDS011;39288;42.970;1.524;2023-02-28T04:55:22;6.70;;;5.97;;
53389;SDS011;39288;42.970;1.524;2023-02-28T04:56:22;7.10;;;6.33;;
53389;SDS011;39288;42.970;1.524;2023-02-28T04:57:23;7.07;;;5.90;;
53389;SDS011;39288;42.970;1.524;2023-02-28T04:58:23;6.90;;;5.87;;
53389;SDS011;39288;42.970;1.524;2023-02-28T04:59:25;7.47;;;6.20;;
53389;SDS011;39288;42.970;1.524;2023-02-28T05:00:25;6.90;;;5.27;;
53389;SDS011;39288;42.970;1.524;2023-02-28T05:01:30;9.70;;;6.43;;
53389;SDS011;39288;42.970;1.524;2023-02-28T05:02:34;8.05;;;6.13;;
53389;SDS011;39288;42.970;1.524;2023-02-28T05:03:35;7.28;;;6.00;;
53389;SDS011;39288;42.970;1.524;2023-02-28T05:04:35;7.13;;;6.40;;
53389;SDS011;39288;42.970;1.524;2023-02-28T05:05:36;8.23;;;6.13;;
53389;SDS011;39288;42.970;1.524;2023-02-28T05:06:37;8.60;;;5.93;;
53389;SDS011;39288;42.970;1.524;2023-02-28T05:07:37;6.87;;;5.63;;
53389;SDS011;39288;42.970;1.524;2023-02-28T05:08:38;6.90;;;6.13;;
53389;SDS011;39288;42.970;1.524;2023-02-28T05:09:39;9.95;;;6.40;;
53389;SDS011;39288;42.970;1.524;2023-02-28T05:10:39;7.67;;;6.17;;
53389;SDS011;39288;42.970;1.524;2023-02-28T05:11:39;7.00;;;6.30;;
53389;SDS011;39288;42.970;1.524;2023-02-28T05:12:40;8.67;;;6.67;;
53389;SDS011;39288;42.970;1.524;2023-02-28T05:13:41;11.60;;;6.20;;
53389;SDS011;39288;42.970;1.524;2023-02-28T05:14:41;13.63;;;6.67;;
53389;SDS011;39288;42.970;1.524;2023-02-28T05:15:42;7.17;;;6.27;;
53389;SDS011;39288;42.970;1.524;2023-02-28T05:16:42;10.43;;;6.43;;
53389;SDS011;39288;42.970;1.524;2023-02-28T05:17:43;8.63;;;6.33;;
53389;SDS011;39288;42.970;1.524;2023-02-28T05:18:43;8.93;;;6.20;;
53389;SDS011;39288;42.970;1.524;2023-02-28T05:19:44;8.38;;;6.50;;
53389;SDS011;39288;42.970;1.524;2023-02-28T05:20:45;7.87;;;6.57;;
53389;SDS011;39288;42.970;1.524;2023-02-28T05:21:52;8.87;;;6.33;;
53389;SDS011;39288;42.970;1.524;2023-02-28T05:22:53;6.97;;;6.25;;
53389;SDS011;39288;42.970;1.524;2023-02-28T05:23:54;7.60;;;6.00;;
53389;SDS011;39288;42.970;1.524;2023-02-28T05:24:56;9.68;;;6.72;;
53389;SDS011;39288;42.970;1.524;2023-02-28T05:25:56;6.60;;;5.37;;
53389;SDS011;39288;42.970;1.524;2023-02-28T05:26:57;7.13;;;6.43;;
53389;SDS011;39288;42.970;1.524;2023-02-28T05:27:58;6.77;;;6.07;;
53389;SDS011;39288;42.970;1.524;2023-02-28T05:28:59;8.57;;;6.60;;
53389;SDS011;39288;42.970;1.524;2023-02-28T05:29:59;8.23;;;6.73;;
53389;SDS011;39288;42.970;1.524;2023-02-28T05:31:02;7.85;;;6.10;;
53389;SDS011;39288;42.970;1.524;2023-02-28T05:32:03;7.90;;;5.93;;
53389;SDS011;39288;42.970;1.524;2023-02-28T05:33:04;7.80;;;5.97;;
53389;SDS011;39288;42.970;1.524;2023-02-28T05:34:04;8.00;;;6.33;;
53389;SDS011;39288;42.970;1.524;2023-02-28T05:35:05;7.70;;;6.20;;
53389;SDS011;39288;42.970;1.524;2023-02-28T05:36:06;7.25;;;6.10;;
53389;SDS011;39288;42.970;1.524;2023-02-28T05:37:16;7.73;;;6.53;;
53389;SDS011;39288;42.970;1.524;2023-02-28T05:38:16;8.80;;;5.90;;
53389;SDS011;39288;42.970;1.524;2023-02-28T05:39:17;7.55;;;6.78;;
53389;SDS011;39288;42.970;1.524;2023-02-28T05:40:18;10.07;;;6.63;;
53389;SDS011;39288;42.970;1.524;2023-02-28T05:41:20;8.25;;;5.70;;
53389;SDS011;39288;42.970;1.524;2023-02-28T05:42:21;10.17;;;6.27;;
53389;SDS011;39288;42.970;1.524;2023-02-28T05:43:21;8.23;;;5.77;;
53389;SDS011;39288;42.970;1.524;2023-02-28T05:44:22;7.70;;;6.27;;
53389;SDS011;39288;42.970;1.524;2023-02-28T05:45:23;8.15;;;6.80;;
53389;SDS011;39288;42.970;1.524;2023-02-28T05:46:24;7.27;;;5.97;;
53389;SDS011;39288;42.970;1.524;2023-02-28T05:47:24;7.90;;;6.37;;
53389;SDS011;39288;42.970;1.524;2023-02-28T05:48:25;8.60;;;6.63;;
53389;SDS011;39288;42.970;1.524;2023-02-28T05:49:26;7.30;;;6.13;;
53389;SDS011;39288;42.970;1.524;2023-02-28T05:50:26;8.00;;;6.80;;
53389;SDS011;39288;42.970;1.524;2023-02-28T05:51:26;8.80;;;7.00;;
53389;SDS011;39288;42.970;1.524;2023-02-28T05:52:28;7.60;;;6.43;;
53389;SDS011;39288;42.970;1.524;2023-02-28T05:53:30;8.25;;;7.05;;
53389;SDS011;39288;42.970;1.524;2023-02-28T05:54:30;8.00;;;6.83;;
53389;SDS011;39288;42.970;1.524;2023-02-28T05:55:31;7.93;;;6.40;;
53389;SDS011;39288;42.970;1.524;2023-02-28T05:56:31;9.70;;;6.60;;
53389;SDS011;39288;42.970;1.524;2023-02-28T05:57:34;8.48;;;5.80;;
53389;SDS011;39288;42.970;1.524;2023-02-28T05:58:34;8.07;;;6.47;;
53389;SDS011;39288;42.970;1.524;2023-02-28T05:59:35;8.33;;;6.17;;
53389;SDS011;39288;42.970;1.524;2023-02-28T06:00:39;10.77;;;6.70;;
53389;SDS011;39288;42.970;1.524;2023-02-28T06:01:43;7.30;;;6.37;;
53389;SDS011;39288;42.970;1.524;2023-02-28T06:02:48;8.27;;;6.45;;
53389;SDS011;39288;42.970;1.524;2023-02-28T06:03:48;8.33;;;6.40;;
53389;SDS011;39288;42.970;1.524;2023-02-28T06:04:49;9.57;;;6.63;;
53389;SDS011;39288;42.970;1.524;2023-02-28T06:05:49;7.47;;;6.23;;
53389;SDS011;39288;42.970;1.524;2023-02-28T06:06:50;8.53;;;6.23;;
53389;SDS011;39288;42.970;1.524;2023-02-28T06:07:51;8.10;;;6.43;;
53389;SDS011;39288;42.970;1.524;2023-02-28T06:08:51;9.50;;;6.90;;
53389;SDS011;39288;42.970;1.524;2023-02-28T06:09:52;10.13;;;6.50;;
53389;SDS011;39288;42.970;1.524;2023-02-28T06:10:52;7.63;;;6.53;;
53389;SDS011;39288;42.970;1.524;2023-02-28T06:11:53;9.50;;;6.87;;
53389;SDS011;39288;42.970;1.524;2023-02-28T06:12:54;9.23;;;6.97;;
53389;SDS011;39288;42.970;1.524;2023-02-28T06:13:55;9.20;;;6.50;;
53389;SDS011;39288;42.970;1.524;2023-02-28T06:15:56;8.68;;;6.78;;
53389;SDS011;39288;42.970;1.524;2023-02-28T06:17:01;8.43;;;7.43;;
53389;SDS011;39288;42.970;1.524;2023-02-28T06:18:02;10.13;;;6.90;;
53389;SDS011;39288;42.970;1.524;2023-02-28T06:19:03;10.07;;;6.63;;
53389;SDS011;39288;42.970;1.524;2023-02-28T06:20:04;8.60;;;6.55;;
53389;SDS011;39288;42.970;1.524;2023-02-28T06:21:06;7.78;;;6.47;;
53389;SDS011;39288;42.970;1.524;2023-02-28T06:22:06;8.13;;;6.70;;
53389;SDS011;39288;42.970;1.524;2023-02-28T06:23:07;8.10;;;6.57;;
53389;SDS011;39288;42.970;1.524;2023-02-28T06:24:07;8.87;;;7.23;;
53389;SDS011;39288;42.970;1.524;2023-02-28T06:25:08;9.27;;;7.10;;
53389;SDS011;39288;42.970;1.524;2023-02-28T06:26:10;7.53;;;6.45;;
53389;SDS011;39288;42.970;1.524;2023-02-28T06:27:10;9.95;;;6.82;;
53389;SDS011;39288;42.970;1.524;2023-02-28T06:28:11;9.10;;;6.50;;
53389;SDS011;39288;42.970;1.524;2023-02-28T06:29:11;7.37;;;6.27;;
53389;SDS011;39288;42.970;1.524;2023-02-28T06:30:12;8.03;;;6.40;;
53389;SDS011;39288;42.970;1.524;2023-02-28T06:31:14;8.60;;;6.13;;
53389;SDS011;39288;42.970;1.524;2023-02-28T06:32:15;8.60;;;6.65;;
53389;SDS011;39288;42.970;1.524;2023-02-28T06:33:15;9.90;;;6.70;;
53389;SDS011;39288;42.970;1.524;2023-02-28T06:34:16;7.83;;;6.40;;
53389;SDS011;39288;42.970;1.524;2023-02-28T06:35:16;6.80;;;6.10;;
53389;SDS011;39288;42.970;1.524;2023-02-28T06:36:17;8.63;;;6.13;;
53389;SDS011;39288;42.970;1.524;2023-02-28T06:37:18;7.33;;;6.03;;
53389;SDS011;39288;42.970;1.524;2023-02-28T06:38:18;7.80;;;6.27;;
53389;SDS011;39288;42.970;1.524;2023-02-28T06:39:19;8.47;;;7.03;;
53389;SDS011;39288;42.970;1.524;2023-02-28T06:40:20;7.17;;;6.47;;
53389;SDS011;39288;42.970;1.524;2023-02-28T06:41:21;9.73;;;7.00;;
53389;SDS011;39288;42.970;1.524;2023-02-28T06:42:23;9.77;;;6.57;;
53389;SDS011;39288;42.970;1.524;2023-02-28T06:43:29;8.15;;;6.18;;
53389;SDS011;39288;42.970;1.524;2023-02-28T06:44:31;10.18;;;6.75;;
53389;SDS011;39288;42.970;1.524;2023-02-28T06:45:35;8.23;;;6.72;;
53389;SDS011;39288;42.970;1.524;2023-02-28T06:46:35;7.00;;;6.20;;
53389;SDS011;39288;42.970;1.524;2023-02-28T06:47:37;8.40;;;6.37;;
53389;SDS011;39288;42.970;1.524;2023-02-28T06:48:38;8.63;;;6.32;;
53389;SDS011;39288;42.970;1.524;2023-02-28T06:49:38;7.63;;;6.43;;
53389;SDS011;39288;42.970;1.524;2023-02-28T06:50:39;10.20;;;7.07;;
53389;SDS011;39288;42.970;1.524;2023-02-28T06:51:40;8.53;;;6.97;;
53389;SDS011;39288;42.970;1.524;2023-02-28T06:52:42;9.02;;;6.80;;
53389;SDS011;39288;42.970;1.524;2023-02-28T06:53:42;7.57;;;6.30;;